Wauneta, NE

6:37 PM MST on January 25, 2015 (GMT -0700)
Imperial Municipal | Change Station
CLOSE
Current Station
Airport
Location: Imperial,
Elevation: 3274 ft
Nearby Weather Stations

Elev 3274 ft 40.51 °N, 101.62 °W | Updated 44 minutes ago

Mostly Cloudy
Mostly Cloudy
47 °F
Feels Like 47 °F
N
5
Wind Variable Wind from WNW

Today
High -- | Low -- °F
--% Chance of Precip.
Yesterday
High -- | Low -- °F
Precip. -- in
7:00 AM 4:55 PM
Waxing Crescent, 37% visible
Pressure 30.12 in
Visibility 10.0 miles
Clouds Overcast 8500 ft
Dew Point 32 °F
Humidity 56%
Rainfall 0.00 in
Snow Depth Not available.
UV 0 out of 12
Pollen .10 out of 12
Air Quality Not available.
Flu Activity Not available.
METAR KIML 260053Z AUTO 29004KT 10SM OVC085 08/00 A3008 RMK AO2 SLP199 T00830000

More Conditions Fewer Conditions

Pressure 30.12 in
Visibility 10.0 miles
Clouds Overcast 8500 ft
Dew Point 32 °F
Humidity 56%
Rainfall 0.00 in
Snow Depth Not available.
UV 0 out of 12
Pollen .10 out of 12
Air Quality Not available.
Flu Activity Not available.
METAR KIML 260053Z AUTO 29004KT 10SM OVC085 08/00 A3008 RMK AO2 SLP199 T00830000

More Conditions Fewer Conditions

10-Day Weather Forecast

Almanac

Astronomy

Jan. 25, 2015 Rise Set
Actual Time
Civil Twilight
Nautical Twilight
Astronomical Twilight
Moon
Length of Visible Light
Length of Day
Tomorrow will be .
, % of the Moon is Illuminated

Today's Extremes

State Highs State Lows

Community

WunderPhotos

Upload Photos

1,790,039 photos uploaded!

WunderBlogs® & News

Nearby

Air Quality

  Air Quality AQ Index Pollutant
Not available.

Snow Depth

Station Depth Elevation

Earthquake Activity

City Distance Mag. Time & Date
Minimum magnitude displayed is 2.5.

Coastal Water Temperatures

Place Temperature

Nearby Weather Stations